Terminal Aerodrome Forecast
Issued by NWS Blacksburg, VA

Home | Current Version | Previous Version | Text Only | Print | Product List | Glossary On
Versions: 1 2 3 4 5 6 7 8 9 10 11 12 13 14 15 16 17 18 19 20 21 22 23 24 25 26 27 28 29 30 31
000
FTUS41 KRNK 230925 AAA
TAFBLF
TAF AMD
KBLF 230925Z 2309/2406 28005KT 6SM BR VCSH SCT004 BKN015 OVC070
      TEMPO 2310/2312 BKN004
     FM231330 29006KT P6SM VCSH BKN020 OVC035
     FM231800 31007KT P6SM VCTS BKN030CB OVC045
     FM240100 VRB04KT 4SM BR VCSH SCT007 OVC025
      TEMPO 2402/2406 3/4SM BR VV004=

USA.gov is the U.S. government's official web portal to all federal, state and local government web resources and services.